Time;durP1;ratioP1;P1;durP2;ratioP2;P2;SDS_P1;SDS_P2;PMS_P1;PMS_P2;Temp;Humidity;BMP_temperature;BMP_pressure;BME280_temperature;BME280_humidity;BME280_pressure;Samples;Min_cycle;Max_cycle;Signal;HPM_P1;HPM_P2
2023/09/23 00:02:18;;;;;;;5.55;3.17;;;;;;;13.76;85.18;97157.06;10537967;28;20139;-63
2023/09/23 00:07:39;;;;;;;3.83;2.78;;;;;;;13.74;85.42;97159.78;10541379;28;20040;-62
2023/09/23 00:13:00;;;;;;;4.25;2.53;;;;;;;13.61;85.37;97146.56;10546490;28;20529;-63
2023/09/23 00:18:21;;;;;;;3.03;2.10;;;;;;;13.61;85.43;97152.19;10547993;28;20052;-65
2023/09/23 00:23:44;;;;;;;3.58;2.38;;;;;;;13.52;85.63;97169.97;10551142;28;20194;-65
2023/09/23 00:29:05;;;;;;;5.17;2.37;;;;;;;13.52;86.09;97164.38;10549028;28;20531;-65
2023/09/23 00:34:27;;;;;;;3.03;2.30;;;;;;;13.58;86.67;97159.75;10545653;28;20115;-63
2023/09/23 00:39:49;;;;;;;2.97;2.42;;;;;;;13.63;86.22;97157.88;10545372;28;20120;-63
2023/09/23 00:45:15;;;;;;;5.22;2.50;;;;;;;13.57;86.76;97149.16;10546255;28;20529;-62
2023/09/23 00:50:36;;;;;;;4.13;2.28;;;;;;;13.56;85.93;97153.34;10544691;28;20438;-62
2023/09/23 00:55:57;;;;;;;3.88;2.38;;;;;;;13.41;85.91;97175.09;10530512;28;20537;-62
2023/09/23 01:01:18;;;;;;;3.90;2.47;;;;;;;13.25;86.44;97165.91;10530279;28;20612;-62
2023/09/23 01:06:41;;;;;;;4.53;2.53;;;;;;;13.11;87.45;97165.91;10545076;28;20132;-62
2023/09/23 01:12:02;;;;;;;2.08;1.77;;;;;;;13.04;87.32;97166.28;10545114;28;20048;-62
2023/09/23 01:17:24;;;;;;;4.30;2.30;;;;;;;12.94;87.54;97182.59;10545017;28;20124;-62
2023/09/23 01:22:47;;;;;;;3.38;2.25;;;;;;;12.86;88.06;97172.44;10543227;28;20087;-64
2023/09/23 01:28:12;;;;;;;2.33;1.95;;;;;;;12.77;88.48;97153.78;10544305;28;20076;-64
2023/09/23 01:33:34;;;;;;;3.10;1.95;;;;;;;12.66;88.73;97159.50;10529673;28;20115;-64
2023/09/23 01:38:55;;;;;;;5.07;2.15;;;;;;;12.59;89.52;97166.88;10543305;28;20107;-64
2023/09/23 01:44:16;;;;;;;2.90;1.90;;;;;;;12.54;89.47;97149.13;10543918;28;20398;-64
2023/09/23 01:49:38;;;;;;;2.92;1.80;;;;;;;12.50;89.87;97160.13;10543627;28;20040;-64
2023/09/23 01:54:59;;;;;;;2.17;1.85;;;;;;;12.48;89.97;97167.69;10542173;28;20120;-63
2023/09/23 02:00:24;;;;;;;1.80;1.55;;;;;;;12.48;90.65;97168.44;10543113;28;20123;-64
2023/09/23 02:05:46;;;;;;;2.65;1.42;;;;;;;12.46;90.48;97182.31;10542786;28;20111;-64
2023/09/23 02:11:08;;;;;;;3.43;1.57;;;;;;;12.50;90.30;97182.53;10541991;28;20101;-64
2023/09/23 02:16:29;;;;;;;3.15;1.40;;;;;;;12.53;90.69;97191.75;10541958;28;20439;-64
2023/09/23 02:21:51;;;;;;;4.80;1.63;;;;;;;12.52;90.20;97199.41;10542781;28;20114;-64
2023/09/23 02:27:13;;;;;;;4.55;1.65;;;;;;;12.46;90.01;97215.91;10541337;28;20075;-64
2023/09/23 02:32:43;;;;;;;2.60;1.53;;;;;;;12.38;90.26;97209.91;10540547;28;20063;-64
2023/09/23 02:38:04;;;;;;;1.90;1.70;;;;;;;12.38;90.71;97212.69;10526807;28;20048;-64
2023/09/23 02:43:25;;;;;;;2.10;1.33;;;;;;;12.42;90.73;97220.56;10541415;28;20090;-64
2023/09/23 02:48:47;;;;;;;3.03;1.30;;;;;;;12.37;90.99;97225.25;10540426;28;20042;-64
2023/09/23 02:54:09;;;;;;;1.75;1.27;;;;;;;12.43;90.94;97242.34;10540882;28;20075;-64
2023/09/23 02:59:31;;;;;;;2.38;1.85;;;;;;;12.46;90.98;97245.97;10539914;28;20548;-64
2023/09/23 03:04:58;;;;;;;3.22;1.90;;;;;;;12.51;91.15;97256.03;10540661;28;20123;-64
2023/09/23 03:10:19;;;;;;;3.58;1.50;;;;;;;12.57;91.00;97264.75;10540646;28;20068;-64
2023/09/23 03:15:44;;;;;;;1.60;1.20;;;;;;;12.59;90.91;97267.66;10539381;28;20124;-64
2023/09/23 03:21:09;;;;;;;1.92;1.60;;;;;;;12.59;90.69;97268.38;10525461;28;20139;-64
2023/09/23 03:26:30;;;;;;;1.75;1.20;;;;;;;12.56;90.38;97286.44;10511672;28;20064;-64
2023/09/23 03:31:50;;;;;;;1.40;0.80;;;;;;;12.57;90.11;97293.47;10539957;28;20048;-64
2023/09/23 03:37:11;;;;;;;2.10;0.85;;;;;;;12.59;90.01;97290.78;10524582;28;20071;-64
2023/09/23 03:42:32;;;;;;;2.72;1.10;;;;;;;12.63;90.16;97289.53;10538808;28;20130;-66
2023/09/23 03:47:52;;;;;;;1.80;0.95;;;;;;;12.57;89.87;97313.06;10538289;28;20114;-64
2023/09/23 03:53:13;;;;;;;2.58;1.10;;;;;;;12.52;89.82;97330.25;10538148;28;20470;-64
2023/09/23 03:58:34;;;;;;;1.58;0.80;;;;;;;12.49;89.72;97309.13;10538215;28;20459;-64
2023/09/23 04:03:56;;;;;;;2.78;0.77;;;;;;;12.45;89.55;97317.28;10537915;28;20083;-65
2023/09/23 04:09:17;;;;;;;1.13;0.60;;;;;;;12.41;89.54;97312.22;10537736;28;20123;-64
2023/09/23 04:14:38;;;;;;;3.28;0.90;;;;;;;12.43;89.53;97317.19;10537815;28;20136;-64
2023/09/23 04:19:58;;;;;;;0.90;0.40;;;;;;;12.40;89.10;97327.56;10538847;28;20068;-64
2023/09/23 04:25:21;;;;;;;1.20;0.55;;;;;;;12.39;88.87;97342.16;10538790;28;20048;-64
2023/09/23 04:30:42;;;;;;;2.58;0.60;;;;;;;12.31;88.43;97331.97;10538608;28;20044;-64
2023/09/23 04:36:06;;;;;;;0.75;0.40;;;;;;;12.30;88.21;97335.41;10538526;28;20127;-64
2023/09/23 04:41:26;;;;;;;1.93;0.50;;;;;;;12.25;88.17;97359.63;10538365;28;20048;-64
2023/09/23 04:46:47;;;;;;;1.25;0.50;;;;;;;12.25;88.19;97376.41;10538426;28;20071;-64
2023/09/23 04:52:08;;;;;;;4.15;0.50;;;;;;;12.27;88.35;97373.75;10538054;28;20064;-64
2023/09/23 04:57:29;;;;;;;0.98;0.40;;;;;;;12.32;88.12;97385.88;10545865;28;20044;-64
2023/09/23 05:02:50;;;;;;;0.77;0.50;;;;;;;12.38;87.96;97393.91;10545545;28;20109;-64
2023/09/23 05:08:11;;;;;;;0.90;0.50;;;;;;;12.47;87.74;97376.19;10545440;28;20478;-64
2023/09/23 05:13:37;;;;;;;1.73;0.63;;;;;;;12.57;87.18;97380.28;10545276;28;20394;-64
2023/09/23 05:18:58;;;;;;;2.13;0.55;;;;;;;12.76;87.35;97395.25;10517085;28;20401;-62
2023/09/23 05:24:21;;;;;;;1.92;0.70;;;;;;;12.94;86.64;97398.28;10545163;28;20414;-64
2023/09/23 05:29:44;;;;;;;1.17;0.82;;;;;;;13.12;86.05;97410.44;10543595;28;20060;-64
2023/09/23 05:35:09;;;;;;;3.53;0.80;;;;;;;13.12;84.74;97424.44;10544421;28;20072;-64
2023/09/23 05:40:30;;;;;;;3.40;1.05;;;;;;;13.29;84.78;97426.03;10543050;28;20117;-64
2023/09/23 05:45:51;;;;;;;2.40;1.00;;;;;;;13.67;84.44;97433.63;10528908;28;20067;-64
2023/09/23 05:51:12;;;;;;;1.30;0.60;;;;;;;14.09;83.87;97430.75;10542829;28;20482;-64
2023/09/23 05:56:33;;;;;;;1.63;0.60;;;;;;;14.74;82.86;97433.84;10543443;28;20076;-64
2023/09/23 06:01:54;;;;;;;2.85;0.55;;;;;;;15.51;81.29;97448.56;10543248;28;20137;-64
2023/09/23 06:07:14;;;;;;;3.08;0.70;;;;;;;16.11;79.70;97449.69;10542565;28;20052;-64
2023/09/23 06:12:35;;;;;;;1.67;0.70;;;;;;;16.66;78.02;97477.25;10541978;28;20064;-64
2023/09/23 06:17:56;;;;;;;2.60;1.05;;;;;;;17.92;76.07;97473.50;10541878;28;20044;-65
2023/09/23 06:23:17;;;;;;;1.98;0.60;;;;;;;21.34;76.60;97473.84;10541571;28;20085;-62
2023/09/23 06:28:38;;;;;;;2.75;0.60;;;;;;;23.48;65.42;97492.41;10542496;28;20044;-62
2023/09/23 06:33:59;;;;;;;1.42;0.60;;;;;;;23.04;64.31;97509.56;10541944;28;20093;-62
2023/09/23 06:39:23;;;;;;;1.90;0.40;;;;;;;23.51;61.17;97516.63;10541818;28;20044;-62
2023/09/23 06:44:45;;;;;;;1.60;0.50;;;;;;;25.05;56.93;97525.38;10541293;28;20059;-63
2023/09/23 06:50:07;;;;;;;1.25;0.30;;;;;;;31.67;45.05;97553.13;10541306;28;20036;-65
2023/09/23 06:55:28;;;;;;;1.10;0.40;;;;;;;38.99;28.63;97559.50;10540887;28;20488;-66
2023/09/23 07:00:48;;;;;;;1.92;0.70;;;;;;;37.88;25.32;97574.19;10541104;28;20064;-66
2023/09/23 07:06:09;;;;;;;1.30;0.40;;;;;;;32.72;25.85;97584.88;10540811;28;20445;-66
2023/09/23 07:11:30;;;;;;;1.42;0.30;;;;;;;28.55;29.33;97577.13;10540497;28;20438;-66
2023/09/23 07:16:51;;;;;;;1.03;0.30;;;;;;;27.52;31.78;97593.31;10538250;28;20121;-65
2023/09/23 07:22:12;;;;;;;0.65;0.25;;;;;;;28.03;31.50;97595.31;10540336;28;20074;-66
2023/09/23 07:27:33;;;;;;;0.93;0.20;;;;;;;26.89;32.36;97604.75;10538838;28;20540;-65
2023/09/23 07:32:54;;;;;;;1.05;0.20;;;;;;;24.42;33.77;97599.72;10539511;28;20448;-64
2023/09/23 07:38:14;;;;;;;0.60;0.20;;;;;;;23.79;36.58;97598.22;10539468;28;20405;-65
2023/09/23 07:43:38;;;;;;;0.57;0.20;;;;;;;24.03;35.80;97604.25;10539620;28;20097;-64
2023/09/23 07:49:01;;;;;;;0.30;0.10;;;;;;;23.66;37.00;97618.00;10539525;28;20040;-64
2023/09/23 07:54:25;;;;;;;1.17;0.30;;;;;;;24.70;37.01;97624.25;10539351;28;20051;-65
2023/09/23 07:59:46;;;;;;;0.50;0.20;;;;;;;26.46;36.25;97647.63;10539053;28;20055;-65
2023/09/23 08:05:07;;;;;;;1.02;0.30;;;;;;;30.22;31.08;97644.69;10539130;28;20036;-65
2023/09/23 08:10:28;;;;;;;1.20;0.20;;;;;;;31.45;28.62;97647.25;10539086;28;20474;-65
2023/09/23 08:15:49;;;;;;;1.45;0.32;;;;;;;30.96;27.93;97653.06;10538943;28;20321;-65
2023/09/23 08:21:11;;;;;;;1.57;0.30;;;;;;;29.54;28.69;97658.34;10538687;28;20097;-65
2023/09/23 08:26:32;;;;;;;2.05;0.20;;;;;;;29.36;28.62;97656.31;10538684;28;20044;-65
2023/09/23 08:31:52;;;;;;;0.50;0.20;;;;;;;30.48;27.62;97649.38;10546414;28;20418;-65
2023/09/23 08:37:13;;;;;;;0.40;0.20;;;;;;;29.52;27.65;97655.44;10546640;28;20085;-65
2023/09/23 08:42:34;;;;;;;1.23;0.20;;;;;;;28.04;28.00;97669.19;10546552;28;20075;-65
2023/09/23 08:47:55;;;;;;;1.23;0.20;;;;;;;26.56;29.17;97669.13;10546824;28;20508;-64
2023/09/23 08:53:15;;;;;;;1.15;0.30;;;;;;;24.55;31.16;97672.59;10545782;28;20079;-64
2023/09/23 08:58:37;;;;;;;3.93;0.30;;;;;;;23.55;32.45;97684.78;10545117;28;20052;-64
2023/09/23 09:03:57;;;;;;;0.45;0.20;;;;;;;23.29;33.51;97709.97;10545392;28;20513;-64
2023/09/23 09:09:18;;;;;;;0.35;0.17;;;;;;;22.19;34.09;97702.16;10545328;28;20442;-64
2023/09/23 09:14:39;;;;;;;1.10;0.20;;;;;;;20.91;36.82;97696.97;10544936;28;20098;-62
2023/09/23 09:20:11;;;;;;;0.63;0.30;;;;;;;21.64;37.37;97683.91;10544460;28;20044;-62
2023/09/23 09:25:32;;;;;;;0.85;0.20;;;;;;;25.90;34.46;97685.25;10544642;28;20071;-64
2023/09/23 09:30:59;;;;;;;0.80;0.20;;;;;;;27.37;30.91;97692.19;10544412;28;20074;-64
2023/09/23 09:36:23;;;;;;;0.30;0.10;;;;;;;25.27;31.30;97693.31;10544276;28;20486;-64
2023/09/23 09:41:50;;;;;;;0.98;0.20;;;;;;;23.95;33.16;97695.34;10542557;28;20490;-64
2023/09/23 09:47:11;;;;;;;0.50;0.10;;;;;;;23.26;33.67;97714.19;10542773;28;20082;-64
2023/09/23 09:52:32;;;;;;;1.30;0.15;;;;;;;23.43;34.50;97713.78;10528406;28;20040;-64
2023/09/23 09:57:54;;;;;;;0.50;0.20;;;;;;;23.82;33.96;97699.44;10543492;28;20040;-64
2023/09/23 10:03:15;;;;;;;0.45;0.10;;;;;;;24.07;34.44;97717.59;10542125;28;20434;-65
2023/09/23 10:08:38;;;;;;;1.45;0.20;;;;;;;27.26;32.20;97710.81;10542696;28;20055;-65
2023/09/23 10:13:58;;;;;;;;;;;;;;;26.98;31.11;97697.13;10543094;28;20478;-65
2023/09/23 10:19:32;;;;;;;1.40;0.20;;;;;;;27.83;28.74;97693.63;10542348;28;19920;-65
2023/09/23 10:25:04;;;;;;;0.93;0.10;;;;;;;25.47;29.75;97704.91;10542111;28;20464;-65
2023/09/23 10:30:26;;;;;;;1.08;0.10;;;;;;;22.69;32.29;97693.94;10542216;28;20090;-64
2023/09/23 10:35:47;;;;;;;0.30;0.10;;;;;;;21.31;34.14;97685.22;10542487;28;20104;-64
2023/09/23 10:41:09;;;;;;;0.90;0.20;;;;;;;20.56;35.50;97689.69;10540824;28;20496;-64
2023/09/23 10:46:30;;;;;;;0.52;0.10;;;;;;;20.25;36.79;97699.38;10541255;28;20052;-62
2023/09/23 10:51:53;;;;;;;0.55;0.30;;;;;;;19.76;37.42;97712.09;10541022;28;20516;-62
2023/09/23 10:57:13;;;;;;;0.97;0.20;;;;;;;19.46;38.20;97709.00;10540083;28;20052;-62
2023/09/23 11:02:34;;;;;;;0.40;0.20;;;;;;;19.79;38.70;97707.97;10540547;28;20124;-62
2023/09/23 11:07:56;;;;;;;0.50;0.20;;;;;;;20.00;38.75;97720.63;10540307;28;20059;-62
2023/09/23 11:13:18;;;;;;;2.23;0.20;;;;;;;20.43;39.42;97713.38;10539069;28;20604;-62
2023/09/23 11:18:38;;;;;;;1.58;0.20;;;;;;;20.65;39.14;97716.84;10539274;28;20127;-62
2023/09/23 11:23:59;;;;;;;0.70;0.17;;;;;;;21.11;38.83;97702.44;10539524;28;20101;-62
2023/09/23 11:29:20;;;;;;;1.15;0.10;;;;;;;21.74;38.83;97700.44;10539755;28;20478;-64
2023/09/23 11:34:41;;;;;;;1.98;0.10;;;;;;;21.73;37.57;97704.69;10539453;28;20123;-63
2023/09/23 11:40:03;;;;;;;0.47;0.20;;;;;;;24.02;36.96;97708.25;10539552;28;20079;-63
2023/09/23 11:45:24;;;;;;;3.88;1.13;;;;;;;25.03;34.70;97717.38;10539523;28;20128;-63
2023/09/23 11:50:45;;;;;;;1.67;0.10;;;;;;;23.96;33.88;97722.44;10539098;28;20186;-63
2023/09/23 11:56:05;;;;;;;0.60;0.20;;;;;;;23.29;35.29;97721.38;10539070;28;20123;-63
2023/09/23 12:01:27;;;;;;;0.32;0.10;;;;;;;23.11;35.24;97730.31;10538703;28;20154;-63
2023/09/23 12:06:48;;;;;;;0.20;0.10;;;;;;;22.84;34.68;97731.94;10546789;28;20600;-63
2023/09/23 12:12:12;;;;;;;0.28;0.10;;;;;;;21.85;35.67;97739.78;10547484;28;20102;-63
2023/09/23 12:17:33;;;;;;;0.95;0.10;;;;;;;21.13;36.97;97740.13;10547320;28;20206;-63
2023/09/23 12:22:53;;;;;;;0.47;0.10;;;;;;;21.51;36.93;97738.94;10547266;28;20083;-64
2023/09/23 12:28:14;;;;;;;0.45;0.10;;;;;;;20.83;37.20;97745.69;10546751;28;20511;-64
2023/09/23 12:33:35;;;;;;;0.45;0.10;;;;;;;20.39;37.94;97755.78;10546827;28;20067;-63
2023/09/23 12:38:57;;;;;;;0.55;0.10;;;;;;;20.01;38.40;97770.25;10546417;28;20166;-63
2023/09/23 12:44:18;;;;;;;0.30;0.10;;;;;;;19.47;38.28;97769.91;10546434;28;20119;-63
2023/09/23 12:49:40;;;;;;;0.28;0.10;;;;;;;19.00;38.85;97759.81;10545254;28;20134;-63
2023/09/23 12:55:00;;;;;;;0.90;0.30;;;;;;;18.83;39.78;97771.97;10545829;28;20040;-63
2023/09/23 13:00:21;;;;;;;0.20;0.10;;;;;;;18.81;39.31;97777.53;10545828;28;20501;-63
2023/09/23 13:05:42;;;;;;;1.02;0.10;;;;;;;18.96;39.54;97787.97;10545233;28;20109;-64
2023/09/23 13:11:03;;;;;;;1.38;0.10;;;;;;;19.07;39.47;97780.56;10545289;28;20470;-63
2023/09/23 13:16:24;;;;;;;0.20;0.10;;;;;;;19.09;39.58;97800.44;10543828;28;20459;-63
2023/09/23 13:21:45;;;;;;;4.75;1.90;;;;;;;19.05;39.79;97803.88;10543603;28;20106;-64
2023/09/23 13:27:07;;;;;;;0.50;0.20;;;;;;;19.17;39.88;97800.72;10544516;28;20076;-63
2023/09/23 13:32:28;;;;;;;0.57;0.10;;;;;;;19.13;40.15;97801.31;10544564;28;20143;-63
2023/09/23 13:37:49;;;;;;;0.30;0.10;;;;;;;19.15;39.99;97809.16;10544478;28;20123;-63
2023/09/23 13:43:10;;;;;;;1.35;0.30;;;;;;;19.22;39.57;97802.34;10544003;28;20138;-63
2023/09/23 13:48:32;;;;;;;2.38;0.10;;;;;;;19.56;39.69;97791.47;10543915;28;20402;-63
2023/09/23 13:53:53;;;;;;;0.40;0.10;;;;;;;19.96;39.60;97786.38;10542454;28;20115;-63
2023/09/23 13:59:15;;;;;;;0.45;0.20;;;;;;;20.18;38.63;97786.34;10543397;28;20048;-63
2023/09/23 14:04:37;;;;;;;0.47;0.20;;;;;;;20.36;38.46;97785.44;10542836;28;20116;-63
2023/09/23 14:09:58;;;;;;;0.80;0.15;;;;;;;20.25;38.32;97796.47;10542989;28;20056;-63
2023/09/23 14:15:38;;;;;;;0.38;0.20;;;;;;;21.05;38.03;97796.69;10541948;28;20106;-63
2023/09/23 14:20:59;;;;;;;2.72;0.10;;;;;;;21.13;37.44;97796.91;10542434;28;20490;-63
2023/09/23 14:26:21;;;;;;;0.80;0.20;;;;;;;21.21;36.74;97809.84;10541836;28;20116;-64
2023/09/23 14:31:42;;;;;;;4.78;0.30;;;;;;;20.99;36.86;97815.63;10542003;28;20044;-63
2023/09/23 14:37:03;;;;;;;0.30;0.17;;;;;;;20.80;36.76;97811.56;10541924;28;20090;-63
2023/09/23 14:42:24;;;;;;;0.88;0.10;;;;;;;20.42;36.68;97813.97;10541978;28;20452;-63
2023/09/23 14:47:45;;;;;;;1.10;0.30;;;;;;;20.26;37.11;97829.09;10541404;28;20064;-63
2023/09/23 14:53:07;;;;;;;0.63;0.20;;;;;;;20.08;37.36;97834.22;10541310;28;20040;-63
2023/09/23 14:58:27;;;;;;;0.98;0.30;;;;;;;20.02;37.02;97845.34;10541015;28;20044;-63
2023/09/23 15:03:48;;;;;;;0.70;0.20;;;;;;;19.80;37.75;97853.13;10540891;28;20044;-62
2023/09/23 15:09:12;;;;;;;2.58;0.50;;;;;;;19.63;37.94;97860.34;10540327;28;20077;-63
2023/09/23 15:14:32;;;;;;;0.50;0.10;;;;;;;19.51;38.14;97871.97;10539556;28;20549;-63
2023/09/23 15:19:56;;;;;;;;;;;;;;;19.33;38.38;97877.69;10541029;28;20114;-63
2023/09/23 15:25:16;;;;;;;0.98;0.20;;;;;;;19.01;38.63;97896.31;10540180;28;20348;-63
2023/09/23 15:30:37;;;;;;;1.77;0.43;;;;;;;18.81;38.52;97904.78;10540081;28;20068;-63
2023/09/23 15:35:58;;;;;;;0.50;0.20;;;;;;;18.66;39.39;97903.53;10539621;28;20085;-63
2023/09/23 15:41:18;;;;;;;0.60;0.20;;;;;;;18.53;39.26;97905.16;10539127;28;20120;-63
2023/09/23 15:46:39;;;;;;;0.95;0.20;;;;;;;18.53;39.39;97910.06;10538489;28;20164;-63
2023/09/23 15:51:59;;;;;;;0.35;0.15;;;;;;;18.53;39.60;97907.97;10538482;28;20120;-63
2023/09/23 15:57:20;;;;;;;1.60;0.20;;;;;;;18.53;39.97;97902.31;10539339;28;20467;-63
2023/09/23 16:02:41;;;;;;;1.27;0.40;;;;;;;18.42;39.77;97900.44;10539166;28;20082;-63
2023/09/23 16:08:02;;;;;;;0.50;0.20;;;;;;;18.29;39.90;97904.19;10539059;28;20544;-62
2023/09/23 16:13:23;;;;;;;0.95;0.25;;;;;;;18.10;40.51;97913.28;10538896;28;20123;-63
2023/09/23 16:18:45;;;;;;;1.45;0.20;;;;;;;17.95;40.45;97924.00;10539059;28;20123;-63
2023/09/23 16:24:06;;;;;;;1.70;0.40;;;;;;;17.80;40.63;97926.88;10538491;28;20076;-63
2023/09/23 16:29:27;;;;;;;1.40;0.40;;;;;;;17.69;40.97;97945.47;10538616;28;20068;-63
2023/09/23 16:34:48;;;;;;;1.35;0.40;;;;;;;17.51;41.32;97936.94;10538531;28;20565;-64
2023/09/23 16:40:10;;;;;;;1.35;0.50;;;;;;;17.30;41.60;97945.88;10538399;28;20083;-64
2023/09/23 16:45:30;;;;;;;1.35;0.40;;;;;;;17.07;41.83;97955.41;10538383;28;20435;-63
2023/09/23 16:50:52;;;;;;;1.10;0.38;;;;;;;16.85;42.21;97953.03;10542069;28;20075;-63
2023/09/23 16:56:13;;;;;;;2.00;0.30;;;;;;;16.66;43.26;97950.69;10545009;28;20509;-64
2023/09/23 17:01:34;;;;;;;0.77;0.35;;;;;;;16.43;43.38;97957.38;10545612;28;20044;-64
2023/09/23 17:06:54;;;;;;;2.78;0.40;;;;;;;16.23;43.54;97962.03;10545521;28;20494;-64
2023/09/23 17:12:15;;;;;;;2.08;0.85;;;;;;;16.10;43.53;97965.59;10545415;28;20145;-64
2023/09/23 17:17:36;;;;;;;5.75;1.73;;;;;;;15.97;44.33;97975.53;10544961;28;20127;-64
2023/09/23 17:22:57;;;;;;;2.92;1.60;;;;;;;15.90;44.43;97987.84;10545410;28;20157;-63
2023/09/23 17:28:18;;;;;;;3.10;1.95;;;;;;;15.77;44.69;97985.78;10544650;28;20047;-63
2023/09/23 17:33:39;;;;;;;3.20;1.38;;;;;;;15.62;45.15;98004.72;10544643;28;20078;-64
2023/09/23 17:39:00;;;;;;;3.78;1.13;;;;;;;15.53;45.40;98019.69;10544352;28;20554;-63
2023/09/23 17:44:20;;;;;;;3.67;2.00;;;;;;;15.53;46.46;98035.84;10544235;28;20067;-64
2023/09/23 17:49:41;;;;;;;2.55;1.10;;;;;;;15.60;45.88;98038.38;10543775;28;20121;-63
2023/09/23 17:55:03;;;;;;;3.33;1.38;;;;;;;15.69;46.31;98048.72;10543495;28;20047;-63
2023/09/23 18:00:23;;;;;;;2.03;1.20;;;;;;;15.78;46.30;98058.31;10542924;28;20099;-64
2023/09/23 18:05:44;;;;;;;3.88;1.42;;;;;;;15.85;46.15;98056.56;10543255;28;20105;-63
2023/09/23 18:11:09;;;;;;;3.25;0.85;;;;;;;15.89;46.18;98070.81;10543449;28;20132;-63
2023/09/23 18:16:31;;;;;;;2.83;1.00;;;;;;;15.89;46.12;98079.28;10542883;28;20154;-63
2023/09/23 18:21:53;;;;;;;2.30;0.60;;;;;;;15.83;46.09;98084.59;10542588;28;20387;-64
2023/09/23 18:27:14;;;;;;;3.20;0.98;;;;;;;15.67;46.26;98088.00;10542707;28;20051;-63
2023/09/23 18:32:37;;;;;;;2.97;0.80;;;;;;;15.49;46.40;98092.63;10542452;28;20120;-64
2023/09/23 18:37:58;;;;;;;1.50;0.43;;;;;;;15.28;46.37;98112.56;10542052;28;20064;-63
2023/09/23 18:43:19;;;;;;;2.05;0.50;;;;;;;15.11;46.68;98130.63;10541865;28;20067;-63
2023/09/23 18:48:40;;;;;;;3.20;0.50;;;;;;;14.95;46.93;98132.53;10541805;28;20044;-63
2023/09/23 18:54:01;;;;;;;2.30;0.68;;;;;;;14.81;47.02;98140.88;10541387;28;20064;-63
2023/09/23 18:59:22;;;;;;;2.03;0.60;;;;;;;14.72;47.34;98138.97;10541231;28;20414;-64
2023/09/23 19:04:43;;;;;;;3.67;0.43;;;;;;;14.62;47.36;98149.63;10541800;28;20056;-64
2023/09/23 19:10:05;;;;;;;1.90;0.50;;;;;;;14.52;47.57;98147.66;10546889;28;20036;-68
2023/09/23 19:15:26;;;;;;;3.03;0.60;;;;;;;14.47;47.32;98145.97;10544891;28;20048;-64
2023/09/23 19:20:47;;;;;;;2.15;0.52;;;;;;;14.39;47.98;98148.28;10540162;28;20052;-63
2023/09/23 19:26:08;;;;;;;1.10;0.60;;;;;;;14.35;48.15;98164.88;10540339;28;20040;-67
2023/09/23 19:31:29;;;;;;;4.57;0.60;;;;;;;14.24;47.85;98148.78;10540010;28;20458;-63
2023/09/23 19:36:50;;;;;;;2.38;0.60;;;;;;;14.15;48.52;98177.72;10539828;28;20047;-64
2023/09/23 19:42:11;;;;;;;1.95;0.43;;;;;;;14.09;48.87;98174.53;10539587;28;20048;-63
2023/09/23 19:47:32;;;;;;;1.67;0.68;;;;;;;13.99;48.83;98183.81;10539795;28;20050;-64
2023/09/23 19:52:56;;;;;;;1.40;0.50;;;;;;;13.87;49.18;98171.84;10539559;28;20051;-64
2023/09/23 19:58:18;;;;;;;2.80;0.93;;;;;;;13.80;49.49;98178.44;10539226;28;20055;-64
2023/09/23 20:03:39;;;;;;;1.75;0.63;;;;;;;13.72;49.51;98187.06;10538390;28;20140;-63
2023/09/23 20:09:00;;;;;;;2.65;0.55;;;;;;;13.68;49.90;98192.41;10539026;28;20047;-63
2023/09/23 20:14:21;;;;;;;3.78;0.68;;;;;;;13.61;49.86;98198.28;10538990;28;20063;-63
2023/09/23 20:19:42;;;;;;;3.60;0.75;;;;;;;13.54;49.93;98199.22;10538678;28;20131;-63
2023/09/23 20:25:04;;;;;;;1.98;0.50;;;;;;;13.45;50.23;98203.56;10541664;28;20098;-63
2023/09/23 20:30:25;;;;;;;1.58;0.57;;;;;;;13.34;50.39;98209.88;10547164;28;20044;-63
2023/09/23 20:35:47;;;;;;;2.63;0.68;;;;;;;13.24;50.99;98207.16;10545781;28;20552;-63
2023/09/23 20:41:09;;;;;;;3.83;0.68;;;;;;;13.14;50.96;98215.63;10545919;28;20497;-64
2023/09/23 20:46:31;;;;;;;2.97;0.65;;;;;;;13.07;51.17;98215.81;10546142;28;20072;-63
2023/09/23 20:51:52;;;;;;;3.05;0.80;;;;;;;12.98;51.63;98225.03;10545281;28;20068;-63
2023/09/23 20:57:13;;;;;;;3.65;0.80;;;;;;;12.89;51.37;98221.69;10545298;28;20059;-63
2023/09/23 21:02:34;;;;;;;2.70;0.60;;;;;;;12.83;51.86;98232.50;10545024;28;20040;-63
2023/09/23 21:07:55;;;;;;;2.30;0.60;;;;;;;12.76;51.99;98233.44;10544800;28;20040;-63
2023/09/23 21:13:16;;;;;;;2.92;0.60;;;;;;;12.66;52.52;98229.97;10545587;28;20124;-63
2023/09/23 21:18:37;;;;;;;2.55;0.60;;;;;;;12.59;52.74;98237.22;10545409;28;20044;-63
2023/09/23 21:23:59;;;;;;;2.85;0.50;;;;;;;12.56;52.83;98249.63;10545089;28;20063;-63
2023/09/23 21:29:20;;;;;;;3.10;0.57;;;;;;;12.53;53.23;98262.00;10544092;28;20044;-63
2023/09/23 21:34:41;;;;;;;3.75;0.43;;;;;;;12.52;53.50;98268.19;10543187;28;20044;-63
2023/09/23 21:40:02;;;;;;;2.90;0.70;;;;;;;12.49;53.56;98272.19;10528901;28;20043;-63
2023/09/23 21:45:23;;;;;;;1.55;0.50;;;;;;;12.41;54.06;98282.84;10544301;28;20047;-63
2023/09/23 21:50:43;;;;;;;2.63;0.85;;;;;;;12.37;54.32;98294.50;10528604;28;20040;-63
2023/09/23 21:56:05;;;;;;;2.90;0.80;;;;;;;12.32;54.44;98299.06;10542686;28;20044;-63
2023/09/23 22:01:25;;;;;;;1.17;0.50;;;;;;;12.28;54.77;98310.00;10542451;28;20040;-63
2023/09/23 22:06:49;;;;;;;2.08;0.60;;;;;;;12.20;54.60;98315.03;10514646;28;20498;-63
2023/09/23 22:12:10;;;;;;;2.22;0.63;;;;;;;12.14;55.12;98317.38;10528277;28;20128;-63
2023/09/23 22:17:31;;;;;;;2.55;0.63;;;;;;;12.09;55.37;98315.63;10542011;28;20047;-64
2023/09/23 22:22:52;;;;;;;2.95;0.70;;;;;;;12.02;55.88;98311.66;10543026;28;20097;-63
2023/09/23 22:28:13;;;;;;;1.55;0.50;;;;;;;11.98;56.14;98316.25;10513344;28;20478;-63
2023/09/23 22:33:36;;;;;;;2.45;0.43;;;;;;;11.94;56.42;98316.69;10541429;28;20040;-63
2023/09/23 22:38:58;;;;;;;;;;;;;;;11.92;57.66;98329.81;10541350;28;20508;-63
2023/09/23 22:44:19;;;;;;;1.77;0.52;;;;;;;11.88;56.68;98327.47;10541890;28;19927;-63
2023/09/23 22:49:40;;;;;;;1.67;0.60;;;;;;;11.87;56.80;98336.41;10540782;28;20048;-63
2023/09/23 22:55:01;;;;;;;1.88;0.60;;;;;;;11.81;56.93;98336.72;10541216;28;20065;-63
2023/09/23 23:00:32;;;;;;;1.63;0.43;;;;;;;11.74;57.66;98332.72;10547766;22;20119;31
2023/09/23 23:05:56;;;;;;;3.70;0.73;;;;;;;11.70;58.00;98329.66;10466851;22;20049;-63
2023/09/23 23:11:21;;;;;;;4.50;0.50;;;;;;;11.68;58.25;98335.09;10456622;28;20080;-64
2023/09/23 23:16:42;;;;;;;3.78;0.75;;;;;;;11.68;58.11;98331.56;10456488;28;20052;-63
2023/09/23 23:22:03;;;;;;;1.00;0.50;;;;;;;11.67;58.53;98332.88;10442314;28;20041;-63
2023/09/23 23:27:24;;;;;;;2.88;0.60;;;;;;;11.70;58.69;98354.09;10470657;28;20103;-63
2023/09/23 23:32:49;;;;;;;1.85;0.57;;;;;;;11.67;58.94;98335.66;10455948;28;20105;-64
2023/09/23 23:38:13;;;;;;;2.08;0.50;;;;;;;11.67;59.05;98350.38;10469882;28;20052;-63
2023/09/23 23:43:34;;;;;;;2.42;0.50;;;;;;;11.65;59.05;98344.66;10456854;28;20044;-63
2023/09/23 23:48:55;;;;;;;1.25;0.50;;;;;;;11.62;59.56;98347.91;10456392;28;20476;-64
2023/09/23 23:54:17;;;;;;;1.67;0.50;;;;;;;11.58;59.69;98342.75;10455882;28;20059;-63
2023/09/23 23:59:38;;;;;;;2.15;0.60;;;;;;;11.50;60.16;98353.34;10455320;28;20079;-63
